Monroe, Indiana
Current Conditions -  °F | °C
As of 1:54 PM on Thursday 18 Dec 2014 (Local Time) from KFWA Reporting Station
Overcast Overcast  
Wind Chill: 18°   Ceiling: 1500
Heat Index: 27°   Visibility: 8mi
Dew Point: 22°   Wind: 9mph
Humidity: 81%   Direction: 280°W
Pressure: 30.23"   Gusts: NA
Location:  40.75°N, 84.94°W
Report Text: KFWA 181854Z 28008KT 8SM OVC015 M03/M06 A3023 RMK AO2 SNE20 SLP247 P0000 T10281056
Loading
Personal Weather Stations






























Interactive Weather Map New forecast layout! Learn more

10-Day Weather Forecast

Advertisements
Track Severe Weather on mobile